Time;durP1;ratioP1;P1;durP2;ratioP2;P2;SDS_P1;SDS_P2;PMS_P1;PMS_P2;Temp;Humidity;BMP_temperature;BMP_pressure;BME280_temperature;BME280_humidity;BME280_pressure;Samples;Min_cycle;Max_cycle;Signal;HPM_P1;HPM_P2
2021/04/03 00:00:26;;;;;;;2.63;1.42;;;10.50;60.30;;;;;;5116856;28;20024;-90
2021/04/03 00:02:54;;;;;;;3.70;1.65;;;10.50;60.30;;;;;;5115371;28;20027;-89
2021/04/03 00:05:20;;;;;;;2.20;1.20;;;10.50;60.30;;;;;;5115443;28;20106;-88
2021/04/03 00:07:46;;;;;;;2.22;1.27;;;10.50;60.30;;;;;;5099755;28;20036;-89
2021/04/03 00:10:17;;;;;;;4.85;1.50;;;10.50;60.30;;;;;;5079141;28;20502;-89
2021/04/03 00:12:43;;;;;;;3.10;1.48;;;10.50;60.30;;;;;;5102844;28;20035;-89
2021/04/03 00:15:11;;;;;;;2.47;1.40;;;10.50;60.30;;;;;;5127399;27;20029;-89
2021/04/03 00:17:36;;;;;;;2.85;1.50;;;10.50;60.40;;;;;;5112957;28;20031;-89
2021/04/03 00:20:04;;;;;;;3.65;1.80;;;10.50;60.40;;;;;;5112013;28;20519;-88
2021/04/03 00:22:30;;;;;;;2.65;1.35;;;10.40;60.40;;;;;;5112592;28;20012;-89
2021/04/03 00:24:56;;;;;;;2.90;1.60;;;10.40;61.00;;;;;;5096108;28;20032;-89
2021/04/03 00:27:22;;;;;;;3.53;1.75;;;10.40;60.40;;;;;;5108040;28;20028;-89
2021/04/03 00:29:48;;;;;;;1.88;1.10;;;10.40;60.40;;;;;;5103663;28;20089;-89
2021/04/03 00:32:13;;;;;;;3.17;1.40;;;10.40;60.40;;;;;;5094825;28;20031;-89
2021/04/03 00:34:39;;;;;;;1.35;1.10;;;10.40;60.40;;;;;;5095662;28;20118;-89
2021/04/03 00:37:05;;;;;;;3.80;1.80;;;10.30;60.40;;;;;;5092672;28;20717;-89
2021/04/03 00:39:31;;;;;;;3.58;1.70;;;10.30;60.40;;;;;;5112638;28;20353;-89
2021/04/03 00:41:56;;;;;;;5.63;1.63;;;10.30;60.40;;;;;;5099487;28;20114;-90
2021/04/03 00:44:22;;;;;;;4.50;1.65;;;10.30;60.40;;;;;;5096407;28;20043;-89
2021/04/03 00:46:48;;;;;;;3.53;1.35;;;10.30;60.40;;;;;;5107504;27;20031;-90
2021/04/03 00:49:14;;;;;;;2.42;1.20;;;10.30;60.50;;;;;;5115959;28;20081;-89
2021/04/03 00:51:41;;;;;;;2.58;1.35;;;10.30;60.50;;;;;;5099704;28;20047;-89
2021/04/03 00:54:09;;;;;;;2.67;1.40;;;10.30;60.50;;;;;;5099364;28;20032;-89
2021/04/03 00:56:37;;;;;;;2.67;1.55;;;10.30;60.50;;;;;;5100079;27;20047;-89
2021/04/03 00:59:03;;;;;;;3.00;1.30;;;10.20;60.50;;;;;;5115244;28;20051;-88
2021/04/03 01:01:30;;;;;;;2.58;1.30;;;10.20;60.50;;;;;;5096012;28;20032;-90
2021/04/03 01:03:56;;;;;;;2.88;1.30;;;10.20;60.50;;;;;;5128555;27;20038;-90
2021/04/03 01:06:22;;;;;;;1.35;1.05;;;10.20;60.50;;;;;;5117576;27;20020;-89
2021/04/03 01:08:47;;;;;;;4.00;1.73;;;10.20;60.50;;;;;;5116501;27;20035;-90
2021/04/03 01:11:14;;;;;;;1.77;1.20;;;10.20;60.60;;;;;;5096188;28;20024;-89
2021/04/03 01:14:00;;;;;;;1.50;1.10;;;10.20;60.60;;;;;;5099539;28;20028;-89
2021/04/03 01:16:37;;;;;;;2.88;1.40;;;10.20;60.70;;;;;;5116688;28;20506;-89
2021/04/03 01:19:03;;;;;;;3.40;1.43;;;10.20;60.60;;;;;;5104721;28;20122;-90
2021/04/03 01:21:51;;;;;;;4.30;1.58;;;10.20;61.30;;;;;;5116175;28;20063;-89
2021/04/03 01:24:32;;;;;;;1.58;1.20;;;10.20;60.70;;;;;;5103220;28;20055;-89
2021/04/03 01:27:17;;;;;;;3.08;1.42;;;10.20;60.70;;;;;;5115642;28;20027;-89
2021/04/03 01:30:04;;;;;;;3.70;1.50;;;10.10;60.80;;;;;;5115377;28;20050;-89
2021/04/03 01:33:03;;;;;;;3.63;1.45;;;10.10;60.70;;;;;;5114966;28;20054;-89
2021/04/03 01:35:40;;;;;;;3.03;1.20;;;10.10;60.70;;;;;;5097014;28;20035;-90
2021/04/03 01:38:33;;;;;;;3.40;1.50;;;10.10;60.70;;;;;;5132582;27;20047;-89
2021/04/03 01:41:01;;;;;;;2.22;1.40;;;10.10;60.70;;;;;;5114921;28;20032;-90
2021/04/03 01:43:34;;;;;;;2.33;1.50;;;10.10;60.70;;;;;;5099616;28;20465;-89
2021/04/03 01:46:01;;;;;;;1.58;1.20;;;10.10;60.80;;;;;;5114641;28;20058;-89
2021/04/03 01:48:28;;;;;;;3.40;1.27;;;10.10;60.80;;;;;;5098341;28;20521;-88
2021/04/03 01:50:54;;;;;;;2.28;1.20;;;10.00;60.80;;;;;;5114889;28;20031;-89
2021/04/03 01:53:21;;;;;;;4.40;1.40;;;10.10;60.80;;;;;;5115140;28;20027;-88
2021/04/03 01:55:54;;;;;;;3.25;1.40;;;10.10;61.50;;;;;;5099010;28;20476;-88
2021/04/03 01:58:24;;;;;;;2.42;1.35;;;10.00;60.80;;;;;;5103194;28;20082;-88
2021/04/03 02:00:53;;;;;;;3.63;1.38;;;10.00;60.80;;;;;;5099050;27;20106;-89
2021/04/03 02:03:20;;;;;;;1.85;1.15;;;10.10;60.80;;;;;;5090565;28;20099;-88
2021/04/03 02:05:48;;;;;;;1.95;1.25;;;10.00;60.80;;;;;;5111148;28;20020;-89
2021/04/03 02:08:34;;;;;;;3.00;1.30;;;10.00;60.80;;;;;;5100674;28;20023;-88
2021/04/03 02:11:14;;;;;;;3.25;1.70;;;10.00;60.80;;;;;;5107821;28;20031;-88
2021/04/03 02:13:41;;;;;;;3.28;1.20;;;10.00;60.80;;;;;;5081162;28;20527;-88
2021/04/03 02:16:08;;;;;;;2.28;1.45;;;10.00;60.80;;;;;;5115213;28;20045;-89
2021/04/03 02:18:39;;;;;;;2.83;1.42;;;10.00;60.80;;;;;;5128875;27;20051;-89
2021/04/03 02:21:08;;;;;;;1.90;1.15;;;10.00;60.90;;;;;;5097487;28;20054;-89
2021/04/03 02:23:37;;;;;;;1.55;1.00;;;10.00;60.90;;;;;;5115106;28;20023;-88
2021/04/03 02:26:04;;;;;;;3.03;1.35;;;10.00;60.90;;;;;;5114631;27;20035;-89
2021/04/03 02:28:30;;;;;;;2.95;1.30;;;10.00;60.90;;;;;;5114471;28;20074;-89
2021/04/03 02:30:56;;;;;;;5.15;1.60;;;10.00;60.90;;;;;;5114368;28;20491;-88
2021/04/03 02:33:23;;;;;;;2.03;1.10;;;10.00;60.90;;;;;;5098600;27;20090;-89
2021/04/03 02:35:49;;;;;;;1.70;1.13;;;10.00;60.90;;;;;;5097800;28;20104;-89
2021/04/03 02:38:17;;;;;;;2.85;1.40;;;10.00;60.90;;;;;;5102610;27;20039;-89
2021/04/03 02:41:07;;;;;;;3.25;1.48;;;10.00;60.90;;;;;;5113847;28;20050;-88
2021/04/03 02:43:48;;;;;;;3.40;1.52;;;9.90;60.80;;;;;;5114197;28;20105;-89
2021/04/03 02:46:28;;;;;;;3.08;1.35;;;9.90;60.80;;;;;;5114557;28;20024;-89
2021/04/03 02:48:58;;;;;;;2.95;1.52;;;9.90;60.80;;;;;;5114586;28;20024;-89
2021/04/03 02:51:37;;;;;;;1.98;1.25;;;9.90;60.80;;;;;;5114572;28;20024;-89
2021/04/03 02:54:07;;;;;;;1.95;1.20;;;9.90;60.80;;;;;;5114580;28;20034;-89
2021/04/03 02:56:39;;;;;;;3.22;1.63;;;9.90;60.80;;;;;;5099724;28;20028;-90
2021/04/03 02:59:32;;;;;;;3.47;1.48;;;9.90;60.80;;;;;;5113286;28;20426;-88
2021/04/03 03:02:00;;;;;;;4.47;1.63;;;9.90;60.80;;;;;;5113669;28;20118;-88
2021/04/03 03:04:27;;;;;;;4.22;1.67;;;9.90;60.80;;;;;;5113306;28;20452;-88
2021/04/03 03:06:54;;;;;;;2.63;1.67;;;9.90;60.80;;;;;;5113317;28;20024;-88
2021/04/03 03:09:21;;;;;;;2.80;1.30;;;9.80;60.80;;;;;;5086347;28;20373;-89
2021/04/03 03:11:55;;;;;;;3.72;1.45;;;9.80;60.80;;;;;;5097185;28;20413;-88
2021/04/03 03:14:23;;;;;;;2.90;1.50;;;9.80;60.80;;;;;;5113574;28;20111;-88
2021/04/03 03:16:51;;;;;;;4.15;1.30;;;9.90;60.90;;;;;;5113141;28;20028;-88
2021/04/03 03:19:19;;;;;;;3.47;1.63;;;9.80;60.80;;;;;;5113231;28;20468;-88
2021/04/03 03:21:47;;;;;;;3.38;1.60;;;9.80;60.80;;;;;;5113879;28;20028;-89
2021/04/03 03:24:15;;;;;;;2.70;1.13;;;9.80;60.80;;;;;;5113320;28;20032;-88
2021/04/03 03:26:41;;;;;;;4.07;1.67;;;9.80;60.90;;;;;;5113573;28;20020;-88
2021/04/03 03:29:12;;;;;;;2.90;1.60;;;9.80;60.80;;;;;;5113862;28;20460;-88
2021/04/03 03:31:40;;;;;;;2.35;1.45;;;9.80;60.90;;;;;;5113386;28;20114;-89
2021/04/03 03:34:09;;;;;;;4.53;1.45;;;9.80;60.90;;;;;;5096025;28;20107;-88
2021/04/03 03:36:40;;;;;;;3.08;1.55;;;9.80;60.90;;;;;;5113264;28;20048;-88
2021/04/03 03:39:08;;;;;;;2.72;1.30;;;9.80;60.90;;;;;;5096641;28;20032;-89
2021/04/03 03:41:35;;;;;;;2.90;1.30;;;9.70;60.90;;;;;;5096438;28;20028;-89
2021/04/03 03:44:04;;;;;;;5.32;1.80;;;9.70;60.80;;;;;;5096984;28;20522;-90
2021/04/03 03:46:30;;;;;;;1.65;1.20;;;9.70;60.90;;;;;;5113430;28;20467;-90
2021/04/03 03:48:58;;;;;;;2.83;1.27;;;9.70;60.90;;;;;;5097226;28;20035;-90
2021/04/03 03:51:26;;;;;;;3.20;1.80;;;9.70;60.90;;;;;;5113087;28;20032;-88
2021/04/03 03:54:00;;;;;;;2.63;1.30;;;9.70;60.90;;;;;;5097981;27;20103;-90
2021/04/03 03:56:27;;;;;;;3.92;1.45;;;9.70;60.90;;;;;;5091610;28;20024;-89
2021/04/03 03:58:54;;;;;;;4.72;1.60;;;9.70;60.90;;;;;;5091448;28;20093;-88
2021/04/03 04:01:21;;;;;;;2.47;1.40;;;9.70;60.90;;;;;;5057986;28;20044;-88
2021/04/03 04:03:48;;;;;;;4.20;2.00;;;9.60;60.90;;;;;;5074465;28;20069;-89
2021/04/03 04:06:17;;;;;;;3.95;1.70;;;9.60;60.90;;;;;;5074743;28;20032;-89
2021/04/03 04:08:44;;;;;;;4.55;1.58;;;9.60;60.90;;;;;;5058167;28;20039;-90
2021/04/03 04:11:15;;;;;;;3.78;1.30;;;9.60;60.90;;;;;;5061887;28;20123;-89
2021/04/03 04:13:43;;;;;;;2.90;1.52;;;9.60;60.90;;;;;;5087522;28;20139;-89
2021/04/03 04:16:11;;;;;;;3.35;1.30;;;9.50;60.90;;;;;;5078724;28;20090;-90
2021/04/03 04:18:39;;;;;;;3.33;1.70;;;9.50;60.90;;;;;;5094525;28;20082;-89
2021/04/03 04:21:11;;;;;;;3.60;1.58;;;9.50;60.90;;;;;;5079683;28;20106;-90
2021/04/03 04:23:38;;;;;;;3.42;1.50;;;9.50;60.90;;;;;;5095107;28;20135;-89
2021/04/03 04:26:08;;;;;;;5.25;2.33;;;9.50;60.90;;;;;;5101145;28;20126;-89
2021/04/03 04:28:35;;;;;;;5.32;1.73;;;9.50;61.00;;;;;;5103750;28;20035;-89
2021/04/03 04:31:02;;;;;;;2.97;1.52;;;9.40;60.90;;;;;;5129854;27;20084;-89
2021/04/03 04:33:33;;;;;;;3.70;1.73;;;9.40;61.00;;;;;;5103790;28;20028;-88
2021/04/03 04:36:00;;;;;;;3.38;1.60;;;9.40;61.00;;;;;;5116183;27;20035;-89
2021/04/03 04:38:30;;;;;;;3.15;1.50;;;9.40;61.00;;;;;;5100289;28;20031;-89
2021/04/03 04:40:57;;;;;;;2.70;1.42;;;9.30;61.00;;;;;;5129775;27;20027;-88
2021/04/03 04:43:25;;;;;;;3.85;1.60;;;9.40;61.10;;;;;;5082972;28;20038;-88
2021/04/03 04:45:53;;;;;;;4.05;1.73;;;9.30;61.00;;;;;;5116515;28;20384;-88
2021/04/03 04:48:23;;;;;;;3.08;1.77;;;9.30;61.00;;;;;;5132778;27;20056;-89
2021/04/03 04:50:57;;;;;;;4.35;1.75;;;9.30;61.10;;;;;;5105630;28;20031;-88
2021/04/03 04:53:23;;;;;;;4.32;1.50;;;9.30;61.10;;;;;;5129086;27;20475;-88
2021/04/03 04:55:49;;;;;;;2.20;1.48;;;9.30;61.10;;;;;;5118711;27;20111;-88
2021/04/03 04:58:16;;;;;;;2.92;1.45;;;9.30;61.20;;;;;;5115539;28;20046;-89
2021/04/03 05:00:43;;;;;;;2.72;1.55;;;9.20;61.10;;;;;;5098056;28;20028;-89
2021/04/03 05:03:17;;;;;;;3.03;1.70;;;9.20;61.10;;;;;;5103782;27;20084;-89
2021/04/03 05:05:43;;;;;;;5.38;1.70;;;9.20;61.20;;;;;;5108230;28;20038;-88
2021/04/03 05:08:08;;;;;;;3.47;1.75;;;9.10;61.10;;;;;;5115594;28;20032;-89
2021/04/03 05:10:34;;;;;;;3.20;1.77;;;9.20;61.20;;;;;;5101737;28;20110;-88
2021/04/03 05:13:02;;;;;;;6.28;2.38;;;9.10;61.20;;;;;;5099080;28;20055;-89
2021/04/03 05:15:28;;;;;;;3.13;1.60;;;9.10;61.30;;;;;;5115917;28;20024;-87
2021/04/03 05:17:53;;;;;;;3.88;1.65;;;9.10;61.20;;;;;;5099025;28;20039;-89
2021/04/03 05:20:20;;;;;;;4.20;1.70;;;9.10;61.30;;;;;;5114319;28;20069;-88
2021/04/03 05:22:46;;;;;;;4.40;1.77;;;9.10;61.30;;;;;;5102803;28;20035;-89
2021/04/03 05:25:14;;;;;;;4.47;2.38;;;9.10;61.30;;;;;;5115345;28;20467;-89
2021/04/03 05:27:41;;;;;;;3.75;1.85;;;9.00;61.30;;;;;;5115308;28;20054;-88
2021/04/03 05:30:08;;;;;;;3.63;1.60;;;9.00;62.00;;;;;;5086777;28;20031;-88
2021/04/03 05:32:35;;;;;;;4.13;1.95;;;9.00;61.40;;;;;;5115555;27;20028;-88
2021/04/03 05:35:00;;;;;;;5.35;2.08;;;9.00;61.40;;;;;;5108917;28;20028;-88
2021/04/03 05:37:26;;;;;;;3.63;1.70;;;9.00;61.40;;;;;;5115321;28;20104;-88
2021/04/03 05:39:52;;;;;;;5.50;1.90;;;9.00;61.40;;;;;;5115267;28;20039;-88
2021/04/03 05:42:19;;;;;;;5.30;1.90;;;9.00;61.50;;;;;;5097912;28;20185;-88
2021/04/03 05:44:47;;;;;;;3.67;1.50;;;9.00;61.50;;;;;;5116313;28;20051;-89
2021/04/03 05:47:13;;;;;;;4.85;1.75;;;8.90;61.50;;;;;;5095018;28;20034;-88
2021/04/03 05:49:40;;;;;;;3.92;1.88;;;9.00;61.60;;;;;;5113215;28;20077;-89
2021/04/03 05:52:07;;;;;;;4.30;1.90;;;9.00;61.60;;;;;;5114745;28;20031;-90
2021/04/03 05:54:41;;;;;;;3.25;1.70;;;8.90;61.60;;;;;;5099065;28;20099;-88
2021/04/03 05:57:08;;;;;;;3.65;1.70;;;8.90;61.70;;;;;;5115189;28;20046;-90
2021/04/03 05:59:34;;;;;;;4.85;1.50;;;8.90;61.60;;;;;;5114379;28;20056;-91
2021/04/03 06:02:01;;;;;;;3.95;1.70;;;8.90;61.70;;;;;;5114582;28;20024;-87
2021/04/03 06:04:26;;;;;;;6.10;2.42;;;8.90;61.70;;;;;;5098345;28;20130;-85
2021/04/03 06:06:54;;;;;;;5.40;2.10;;;9.00;61.80;;;;;;5097268;28;20574;-86
2021/04/03 06:09:20;;;;;;;2.85;1.58;;;8.90;61.80;;;;;;5114868;27;20045;-86
2021/04/03 06:11:50;;;;;;;5.30;2.28;;;8.90;61.80;;;;;;5084688;28;20028;-85
2021/04/03 06:14:17;;;;;;;2.67;1.50;;;8.90;61.90;;;;;;5115994;27;20051;-85
2021/04/03 06:16:45;;;;;;;4.55;1.90;;;9.00;61.90;;;;;;5097117;28;20475;-85
2021/04/03 06:19:24;;;;;;;3.83;1.70;;;8.90;61.90;;;;;;5097338;28;20038;-85
2021/04/03 06:21:53;;;;;;;4.28;2.33;;;9.00;62.00;;;;;;5113322;28;20031;-86
2021/04/03 06:24:39;;;;;;;5.47;1.80;;;9.00;62.00;;;;;;5103766;28;20102;-87
2021/04/03 06:27:08;;;;;;;2.92;1.73;;;8.90;62.10;;;;;;5076084;28;20032;-86
2021/04/03 06:29:45;;;;;;;4.10;1.67;;;8.90;62.00;;;;;;5097281;28;20406;-86
2021/04/03 06:32:23;;;;;;;5.07;2.00;;;8.90;62.00;;;;;;5114235;28;20051;-86
2021/04/03 06:34:51;;;;;;;3.60;1.73;;;9.00;62.10;;;;;;5114401;28;20024;-83
2021/04/03 06:37:31;;;;;;;5.05;2.28;;;9.00;62.10;;;;;;5096289;28;20508;-85
2021/04/03 06:39:59;;;;;;;6.20;1.75;;;9.00;62.30;;;;;;5096478;27;20046;-84
2021/04/03 06:42:47;;;;;;;5.45;1.98;;;8.90;62.10;;;;;;5101831;28;20023;-84
2021/04/03 06:45:20;;;;;;;3.65;1.77;;;9.00;62.40;;;;;;5113325;28;20031;-85
2021/04/03 06:47:48;;;;;;;3.30;1.52;;;9.00;62.30;;;;;;5110723;28;20175;-84
2021/04/03 06:50:15;;;;;;;5.63;1.90;;;9.00;62.30;;;;;;5096163;27;20032;-85
2021/04/03 06:52:42;;;;;;;5.15;1.88;;;9.00;62.30;;;;;;5113542;27;20030;-85
2021/04/03 06:55:13;;;;;;;6.70;2.45;;;9.00;62.40;;;;;;5113429;27;20024;-84
2021/04/03 06:57:43;;;;;;;4.20;1.90;;;9.00;62.40;;;;;;5112463;28;20147;-85
2021/04/03 07:00:12;;;;;;;5.50;2.00;;;9.00;62.40;;;;;;5113499;28;20095;-82
2021/04/03 07:02:49;;;;;;;5.28;1.88;;;9.00;62.40;;;;;;5095765;28;20118;-83
2021/04/03 07:05:16;;;;;;;6.38;1.95;;;9.10;62.60;;;;;;5112276;28;20035;-83
2021/04/03 07:07:47;;;;;;;5.03;1.80;;;9.10;62.50;;;;;;5112627;28;20029;-83
2021/04/03 07:10:14;;;;;;;5.03;2.35;;;9.10;62.60;;;;;;5113035;28;20456;-85
2021/04/03 07:12:40;;;;;;;6.13;2.05;;;9.10;62.60;;;;;;5096718;28;20357;-83
2021/04/03 07:15:08;;;;;;;5.20;1.80;;;9.10;62.60;;;;;;5116420;27;20027;-89
2021/04/03 07:17:44;;;;;;;6.47;2.30;;;9.10;62.60;;;;;;5113343;27;20027;-87
2021/04/03 07:20:14;;;;;;;4.85;1.92;;;9.10;62.70;;;;;;5094891;28;20023;-88
2021/04/03 07:22:48;;;;;;;5.07;1.80;;;9.20;62.70;;;;;;5091786;28;20618;-89
2021/04/03 07:25:16;;;;;;;8.10;2.40;;;9.20;62.70;;;;;;5112069;28;20034;-86
2021/04/03 07:27:45;;;;;;;5.45;2.17;;;9.20;62.70;;;;;;5133233;27;20036;-86
2021/04/03 07:30:12;;;;;;;4.47;2.00;;;9.30;62.80;;;;;;5093609;28;20024;-89
2021/04/03 07:32:44;;;;;;;4.97;2.10;;;9.30;62.80;;;;;;5115966;27;20107;-86
2021/04/03 07:35:43;;;;;;;9.75;2.80;;;9.30;62.80;;;;;;5112203;28;20020;-83
2021/04/03 07:38:12;;;;;;;6.22;2.17;;;9.30;63.00;;;;;;5115339;27;20403;-86
2021/04/03 07:40:41;;;;;;;4.30;1.65;;;9.30;62.80;;;;;;5110578;28;20535;-88
2021/04/03 07:43:35;;;;;;;6.13;2.17;;;9.40;62.90;;;;;;5109420;28;20447;-84
2021/04/03 07:46:04;;;;;;;5.18;2.00;;;9.40;63.00;;;;;;5111513;28;20039;-86
2021/04/03 07:48:40;;;;;;;5.85;2.35;;;9.40;62.80;;;;;;5106634;28;20020;-83
2021/04/03 07:51:07;;;;;;;6.47;2.45;;;9.40;62.90;;;;;;5109050;28;20035;-84
2021/04/03 07:53:37;;;;;;;6.07;2.08;;;9.50;62.90;;;;;;5108807;28;20103;-84
2021/04/03 07:56:06;;;;;;;5.90;2.35;;;9.50;62.90;;;;;;5090713;28;20032;-92
2021/04/03 07:58:33;;;;;;;4.68;1.70;;;9.50;62.90;;;;;;5111056;28;20047;-91
2021/04/03 08:01:02;;;;;;;4.82;2.22;;;9.60;63.00;;;;;;5092854;28;20051;-84
2021/04/03 08:03:30;;;;;;;7.68;2.40;;;9.60;63.00;;;;;;5093830;28;20023;-84
2021/04/03 08:06:04;;;;;;;4.15;2.05;;;9.60;63.00;;;;;;5092968;28;20092;-86
2021/04/03 08:08:32;;;;;;;4.15;2.00;;;9.70;63.10;;;;;;5109639;28;20031;-82
2021/04/03 08:11:17;;;;;;;3.97;2.17;;;9.70;63.00;;;;;;5098177;28;20031;-86
2021/04/03 08:13:52;;;;;;;5.53;1.83;;;9.70;63.10;;;;;;5113029;28;20035;-86
2021/04/03 08:16:19;;;;;;;5.43;2.53;;;9.80;63.00;;;;;;5096503;28;20056;-88
2021/04/03 08:18:53;;;;;;;4.53;2.03;;;9.80;63.00;;;;;;5122293;28;20038;-87
2021/04/03 08:21:19;;;;;;;5.40;2.00;;;9.80;63.10;;;;;;5107787;28;20031;-88
2021/04/03 08:23:49;;;;;;;5.65;2.00;;;9.80;63.00;;;;;;5111576;28;20023;-84
2021/04/03 08:26:19;;;;;;;4.65;1.98;;;9.90;63.10;;;;;;5111908;28;20051;-82
2021/04/03 08:28:46;;;;;;;5.22;2.10;;;9.90;63.00;;;;;;5092310;28;20551;-84
2021/04/03 08:31:21;;;;;;;5.72;1.98;;;9.90;63.00;;;;;;5123950;28;20026;-83
2021/04/03 08:33:50;;;;;;;7.20;2.17;;;9.90;63.00;;;;;;5108780;28;20019;-83
2021/04/03 08:36:18;;;;;;;5.57;2.08;;;10.00;63.00;;;;;;5107273;28;20028;-83
2021/04/03 08:38:44;;;;;;;5.55;2.15;;;10.00;63.00;;;;;;5091788;28;20088;-84
2021/04/03 08:41:24;;;;;;;5.88;2.13;;;10.00;62.90;;;;;;5107295;28;20050;-83
2021/04/03 08:43:52;;;;;;;4.75;2.20;;;10.10;63.10;;;;;;5091351;28;20024;-85
2021/04/03 08:46:19;;;;;;;4.60;1.90;;;10.10;62.90;;;;;;5108826;28;20024;-84
2021/04/03 08:48:47;;;;;;;5.78;1.98;;;10.20;62.90;;;;;;5106877;28;20037;-84
2021/04/03 08:51:14;;;;;;;5.65;1.80;;;10.20;62.90;;;;;;5107366;28;20078;-84
2021/04/03 08:53:42;;;;;;;5.55;1.95;;;10.20;62.90;;;;;;5108395;28;20027;-83
2021/04/03 08:56:10;;;;;;;3.38;1.88;;;10.30;62.90;;;;;;5107772;28;20055;-82
2021/04/03 08:58:39;;;;;;;5.65;2.35;;;10.30;62.90;;;;;;5111601;28;20044;-84
2021/04/03 09:01:05;;;;;;;5.45;2.03;;;10.40;62.90;;;;;;5125849;27;20165;-85
2021/04/03 09:03:33;;;;;;;7.15;2.33;;;10.40;62.80;;;;;;5094702;28;20030;-84
2021/04/03 09:06:00;;;;;;;6.43;2.30;;;10.40;62.80;;;;;;5112211;28;20024;-80
2021/04/03 09:08:26;;;;;;;5.00;2.40;;;10.50;62.80;;;;;;5092707;28;20033;-82
2021/04/03 09:10:57;;;;;;;6.78;2.60;;;10.50;62.70;;;;;;5109242;28;20383;-81
2021/04/03 09:13:29;;;;;;;5.95;2.42;;;10.50;62.70;;;;;;5124116;27;20038;-81
2021/04/03 09:16:15;;;;;;;4.97;1.80;;;10.50;62.70;;;;;;5114042;28;20097;-82
2021/04/03 09:18:42;;;;;;;3.72;1.70;;;10.60;62.70;;;;;;5114867;28;20057;-83
2021/04/03 09:21:19;;;;;;;4.75;1.98;;;10.60;62.60;;;;;;5115658;28;20679;-83
2021/04/03 09:23:50;;;;;;;3.25;2.10;;;10.70;62.70;;;;;;5114261;28;20027;-81
2021/04/03 09:26:15;;;;;;;4.18;1.73;;;10.70;62.60;;;;;;5105599;28;20060;-80
2021/04/03 09:28:42;;;;;;;4.18;1.67;;;10.80;62.60;;;;;;5114709;27;20031;-89
2021/04/03 09:31:10;;;;;;;4.25;1.95;;;10.80;62.60;;;;;;5109253;28;20111;-83
2021/04/03 09:33:49;;;;;;;5.30;1.88;;;10.90;62.60;;;;;;5131576;27;20046;-80
2021/04/03 09:36:17;;;;;;;5.70;1.95;;;11.00;62.70;;;;;;5097037;28;20058;-82
2021/04/03 09:38:43;;;;;;;3.90;1.90;;;11.00;62.50;;;;;;5115507;28;20024;-87
2021/04/03 09:41:20;;;;;;;6.00;2.13;;;11.10;62.60;;;;;;5115040;28;20043;-90
2021/04/03 09:43:45;;;;;;;4.95;2.00;;;11.20;62.70;;;;;;5116687;28;20031;-85
2021/04/03 09:46:11;;;;;;;5.45;1.85;;;11.30;62.60;;;;;;5098749;28;20064;-94
2021/04/03 09:48:37;;;;;;;6.00;2.30;;;11.30;62.50;;;;;;5116007;27;20027;-88
2021/04/03 09:51:07;;;;;;;4.80;2.10;;;11.40;62.40;;;;;;5114765;28;20034;-88
2021/04/03 09:53:36;;;;;;;5.25;2.28;;;11.50;62.40;;;;;;5092364;28;20069;-92
2021/04/03 09:56:03;;;;;;;5.90;2.55;;;11.60;62.40;;;;;;5132774;27;20035;-91
2021/04/03 09:58:29;;;;;;;6.07;2.20;;;11.70;62.40;;;;;;5148319;27;20054;-95
2021/04/03 10:00:55;;;;;;;4.55;1.88;;;11.70;62.20;;;;;;5108763;27;20035;-89
2021/04/03 10:03:27;;;;;;;3.70;1.88;;;11.80;62.20;;;;;;5115448;27;20028;-92
2021/04/03 10:05:53;;;;;;;3.88;1.70;;;11.90;62.40;;;;;;5107696;27;20016;-90
2021/04/03 10:08:18;;;;;;;5.72;2.28;;;12.00;62.40;;;;;;5095350;28;20061;-91
2021/04/03 10:10:44;;;;;;;7.45;2.25;;;12.10;62.40;;;;;;5095885;28;20046;-93
2021/04/03 10:13:10;;;;;;;4.97;2.30;;;12.10;62.30;;;;;;5101800;28;20132;-89
2021/04/03 10:15:36;;;;;;;6.15;2.38;;;12.30;62.20;;;;;;5101237;28;20024;-88
2021/04/03 10:18:03;;;;;;;3.95;1.75;;;12.30;61.80;;;;;;5094545;28;20126;-87
2021/04/03 10:20:29;;;;;;;4.35;1.85;;;12.40;61.40;;;;;;5097474;28;20122;-88
2021/04/03 10:22:55;;;;;;;6.88;2.47;;;12.50;60.90;;;;;;5121590;27;20444;-89
2021/04/03 10:25:21;;;;;;;4.88;2.20;;;12.60;60.20;;;;;;5100309;28;20510;-87
2021/04/03 10:27:47;;;;;;;4.68;2.15;;;12.60;60.10;;;;;;5110531;27;20063;-85
2021/04/03 10:30:13;;;;;;;5.32;2.15;;;12.70;60.10;;;;;;5103329;27;20049;-83
2021/04/03 10:32:39;;;;;;;5.88;2.17;;;12.80;60.20;;;;;;5108744;28;20036;-94
2021/04/03 10:35:08;;;;;;;5.95;1.98;;;12.90;60.20;;;;;;5103519;27;20053;-92
2021/04/03 10:37:34;;;;;;;5.85;2.10;;;13.00;60.20;;;;;;5097855;28;20357;-85
2021/04/03 10:40:00;;;;;;;5.10;1.80;;;13.10;60.20;;;;;;5097244;28;20034;-81
2021/04/03 10:42:26;;;;;;;6.90;2.38;;;13.20;60.30;;;;;;5090747;28;20020;-81
2021/04/03 10:44:51;;;;;;;4.45;1.80;;;13.30;60.50;;;;;;5101913;28;20051;-84
2021/04/03 10:47:17;;;;;;;5.78;2.10;;;13.40;60.80;;;;;;5110994;28;20055;-81
2021/04/03 10:49:43;;;;;;;4.55;1.80;;;13.50;60.80;;;;;;5095656;28;20484;-82
2021/04/03 10:52:08;;;;;;;3.90;2.13;;;13.60;60.80;;;;;;5112142;28;20032;-80
2021/04/03 10:54:34;;;;;;;4.57;2.00;;;13.70;60.80;;;;;;5092743;28;20403;-95
2021/04/03 10:57:00;;;;;;;4.90;1.92;;;13.80;60.80;;;;;;5114302;28;20119;-80
2021/04/03 10:59:25;;;;;;;3.95;1.65;;;13.90;60.80;;;;;;5112814;28;20134;-80
2021/04/03 11:01:51;;;;;;;4.50;2.22;;;13.90;60.80;;;;;;5078452;28;20057;-79
2021/04/03 11:04:17;;;;;;;4.75;1.75;;;14.00;60.80;;;;;;5113550;28;20532;-81
2021/04/03 11:06:43;;;;;;;4.53;1.70;;;14.10;60.70;;;;;;5105154;28;20048;-81
2021/04/03 11:09:08;;;;;;;7.20;2.55;;;14.10;60.80;;;;;;5092113;28;20047;-87
2021/04/03 11:11:34;;;;;;;5.05;2.10;;;14.20;61.00;;;;;;5090733;28;20070;-86
2021/04/03 11:14:00;;;;;;;4.57;2.00;;;14.30;60.90;;;;;;5096057;28;20095;-87
2021/04/03 11:16:29;;;;;;;3.90;1.88;;;14.40;60.80;;;;;;5112895;28;20114;-89
2021/04/03 11:18:58;;;;;;;5.82;1.88;;;14.50;60.70;;;;;;5113976;27;20076;-89
2021/04/03 11:21:23;;;;;;;3.53;1.70;;;14.50;60.60;;;;;;5096174;28;20032;-93
2021/04/03 11:23:50;;;;;;;5.03;2.00;;;14.60;60.70;;;;;;5114678;28;20030;-88
2021/04/03 11:26:16;;;;;;;4.55;1.63;;;14.60;60.60;;;;;;5114030;28;20034;-93
2021/04/03 11:28:42;;;;;;;4.35;1.70;;;14.70;60.50;;;;;;5097603;28;20024;-93
2021/04/03 11:31:08;;;;;;;2.40;1.38;;;14.80;60.60;;;;;;5114534;28;20032;-91
2021/04/03 11:33:34;;;;;;;5.55;1.90;;;14.80;60.60;;;;;;5097705;28;20057;-90
2021/04/03 11:35:59;;;;;;;3.53;1.65;;;14.90;60.70;;;;;;5093577;28;20131;-90
2021/04/03 11:38:25;;;;;;;4.10;1.85;;;15.00;60.60;;;;;;5093277;28;20452;-90
2021/04/03 11:40:51;;;;;;;3.20;1.70;;;15.00;60.40;;;;;;5113943;28;20471;-92
2021/04/03 11:43:18;;;;;;;5.03;2.05;;;15.10;60.50;;;;;;5109074;28;20016;-92
2021/04/03 11:45:44;;;;;;;4.35;1.98;;;15.10;60.40;;;;;;5092931;28;20031;-87
2021/04/03 11:48:10;;;;;;;3.85;1.67;;;15.20;60.40;;;;;;5121532;27;20024;-85
2021/04/03 11:50:37;;;;;;;4.15;1.88;;;15.30;60.40;;;;;;5112977;28;20030;-85
2021/04/03 11:53:03;;;;;;;3.67;1.90;;;15.30;60.40;;;;;;5109957;28;20032;-90
2021/04/03 11:55:29;;;;;;;7.03;2.25;;;15.40;60.50;;;;;;5101783;28;20042;-86
2021/04/03 11:57:58;;;;;;;3.70;1.90;;;15.40;60.40;;;;;;5096258;28;20023;-89
2021/04/03 12:00:24;;;;;;;3.38;1.65;;;15.50;60.30;;;;;;5096449;28;20062;-90
2021/04/03 12:02:50;;;;;;;4.72;1.83;;;15.60;60.20;;;;;;5113250;28;20480;-90
2021/04/03 12:05:17;;;;;;;3.60;1.70;;;15.60;60.10;;;;;;5093128;28;20028;-89
2021/04/03 12:07:43;;;;;;;4.18;1.85;;;15.70;60.10;;;;;;5125072;27;20034;-90
2021/04/03 12:10:16;;;;;;;4.47;1.77;;;15.70;60.10;;;;;;5096632;28;20115;-90
2021/04/03 12:12:43;;;;;;;5.60;1.90;;;15.80;60.00;;;;;;5112995;28;20111;-90
2021/04/03 12:15:14;;;;;;;5.50;1.63;;;15.80;60.00;;;;;;5098599;28;20478;-91
2021/04/03 12:17:40;;;;;;;4.70;2.03;;;15.90;60.10;;;;;;5112403;28;20066;-88
2021/04/03 12:20:09;;;;;;;3.75;1.60;;;16.00;60.10;;;;;;5112803;28;20073;-92
2021/04/03 12:22:35;;;;;;;4.25;1.70;;;16.00;60.10;;;;;;5112814;28;20023;-90
2021/04/03 12:25:02;;;;;;;4.93;1.63;;;16.00;59.90;;;;;;5113437;28;20077;-89
2021/04/03 12:27:28;;;;;;;3.80;1.67;;;16.10;60.00;;;;;;5095959;28;20031;-88
2021/04/03 12:29:57;;;;;;;4.72;1.83;;;16.10;59.90;;;;;;5095557;28;20053;-89
2021/04/03 12:32:22;;;;;;;3.92;1.90;;;16.20;59.90;;;;;;5112298;28;20035;-91
2021/04/03 12:34:48;;;;;;;4.18;2.25;;;16.20;59.70;;;;;;5114144;28;20020;-88
2021/04/03 12:37:18;;;;;;;3.25;1.58;;;16.30;59.50;;;;;;5115852;28;20088;-88
2021/04/03 12:39:43;;;;;;;3.20;1.70;;;16.30;59.40;;;;;;5096244;28;20028;-90
2021/04/03 12:42:09;;;;;;;6.05;1.60;;;16.40;59.30;;;;;;5115854;28;20024;-85
2021/04/03 12:44:35;;;;;;;5.60;2.08;;;16.40;59.30;;;;;;5081994;28;20035;-82
2021/04/03 12:47:02;;;;;;;3.90;1.70;;;16.40;59.20;;;;;;5115945;28;20036;-86
2021/04/03 12:49:28;;;;;;;5.82;1.90;;;16.50;59.40;;;;;;5098803;28;20036;-84
2021/04/03 12:51:54;;;;;;;4.20;2.00;;;16.50;59.40;;;;;;5095897;28;20465;-85
2021/04/03 12:54:21;;;;;;;3.40;1.73;;;16.60;59.40;;;;;;5110503;28;20102;-86
2021/04/03 12:56:48;;;;;;;5.57;1.70;;;16.60;59.40;;;;;;5099124;28;20062;-86
2021/04/03 12:59:13;;;;;;;4.82;1.77;;;16.60;59.50;;;;;;5115657;28;20073;-87